sensor_id;sensor_type;location;lat;lon;timestamp;temperature;humidity
64501;DHT22;50874;24.150;-110.320;2023-06-05T00:00:32;32.70;70.90
64501;DHT22;50874;24.150;-110.320;2023-06-05T00:02:59;32.50;70.50
64501;DHT22;50874;24.150;-110.320;2023-06-05T00:05:25;32.60;70.60
64501;DHT22;50874;24.150;-110.320;2023-06-05T00:07:52;32.40;72.10
64501;DHT22;50874;24.150;-110.320;2023-06-05T00:10:19;32.40;71.80
64501;DHT22;50874;24.150;-110.320;2023-06-05T00:12:46;32.30;71.40
64501;DHT22;50874;24.150;-110.320;2023-06-05T00:15:12;32.20;72.70
64501;DHT22;50874;24.150;-110.320;2023-06-05T00:17:38;32.10;73.00
64501;DHT22;50874;24.150;-110.320;2023-06-05T00:20:05;32.00;72.80
64501;DHT22;50874;24.150;-110.320;2023-06-05T00:22:35;32.00;73.50
64501;DHT22;50874;24.150;-110.320;2023-06-05T00:25:02;32.10;73.50
64501;DHT22;50874;24.150;-110.320;2023-06-05T00:27:28;32.10;74.20
64501;DHT22;50874;24.150;-110.320;2023-06-05T00:29:55;31.90;74.00
64501;DHT22;50874;24.150;-110.320;2023-06-05T00:32:22;31.70;74.60
64501;DHT22;50874;24.150;-110.320;2023-06-05T00:34:48;31.50;75.80
64501;DHT22;50874;24.150;-110.320;2023-06-05T00:37:16;31.30;75.60
64501;DHT22;50874;24.150;-110.320;2023-06-05T00:39:42;31.40;77.40
64501;DHT22;50874;24.150;-110.320;2023-06-05T00:42:09;31.20;78.30
64501;DHT22;50874;24.150;-110.320;2023-06-05T00:44:35;31.20;78.20
64501;DHT22;50874;24.150;-110.320;2023-06-05T00:47:02;31.20;77.70
64501;DHT22;50874;24.150;-110.320;2023-06-05T00:49:33;31.00;78.30
64501;DHT22;50874;24.150;-110.320;2023-06-05T00:51:59;30.70;79.90
64501;DHT22;50874;24.150;-110.320;2023-06-05T00:54:26;30.80;79.80
64501;DHT22;50874;24.150;-110.320;2023-06-05T00:56:54;30.80;79.70
64501;DHT22;50874;24.150;-110.320;2023-06-05T00:59:20;30.50;80.60
64501;DHT22;50874;24.150;-110.320;2023-06-05T01:01:47;30.70;81.70
64501;DHT22;50874;24.150;-110.320;2023-06-05T01:04:14;30.60;81.40
64501;DHT22;50874;24.150;-110.320;2023-06-05T01:06:41;30.60;81.80
64501;DHT22;50874;24.150;-110.320;2023-06-05T01:09:08;30.30;82.90
64501;DHT22;50874;24.150;-110.320;2023-06-05T01:14:31;29.90;85.20
64501;DHT22;50874;24.150;-110.320;2023-06-05T01:17:01;29.70;86.10
64501;DHT22;50874;24.150;-110.320;2023-06-05T01:19:29;29.50;86.70
64501;DHT22;50874;24.150;-110.320;2023-06-05T01:21:57;29.40;87.50
64501;DHT22;50874;24.150;-110.320;2023-06-05T01:24:24;29.10;88.20
64501;DHT22;50874;24.150;-110.320;2023-06-05T01:27:08;29.00;88.90
64501;DHT22;50874;24.150;-110.320;2023-06-05T01:32:16;28.70;90.20
64501;DHT22;50874;24.150;-110.320;2023-06-05T01:34:46;28.50;90.50
64501;DHT22;50874;24.150;-110.320;2023-06-05T01:37:15;28.40;90.80
64501;DHT22;50874;24.150;-110.320;2023-06-05T01:39:46;28.20;91.20
64501;DHT22;50874;24.150;-110.320;2023-06-05T01:42:14;28.10;91.40
64501;DHT22;50874;24.150;-110.320;2023-06-05T01:44:42;27.90;91.80
64501;DHT22;50874;24.150;-110.320;2023-06-05T01:47:08;27.80;92.10
64501;DHT22;50874;24.150;-110.320;2023-06-05T01:49:35;27.60;92.50
64501;DHT22;50874;24.150;-110.320;2023-06-05T01:52:01;27.50;92.90
64501;DHT22;50874;24.150;-110.320;2023-06-05T01:54:28;27.30;93.30
64501;DHT22;50874;24.150;-110.320;2023-06-05T01:56:55;27.10;93.90
64501;DHT22;50874;24.150;-110.320;2023-06-05T01:59:21;27.00;94.30
64501;DHT22;50874;24.150;-110.320;2023-06-05T02:01:48;26.80;94.80
64501;DHT22;50874;24.150;-110.320;2023-06-05T02:04:14;26.80;95.10
64501;DHT22;50874;24.150;-110.320;2023-06-05T02:06:45;26.70;95.30
64501;DHT22;50874;24.150;-110.320;2023-06-05T02:09:11;26.50;96.00
64501;DHT22;50874;24.150;-110.320;2023-06-05T02:11:39;26.40;97.10
64501;DHT22;50874;24.150;-110.320;2023-06-05T02:14:06;26.20;98.40
64501;DHT22;50874;24.150;-110.320;2023-06-05T02:16:33;26.10;99.60
64501;DHT22;50874;24.150;-110.320;2023-06-05T02:19:00;25.90;99.90
64501;DHT22;50874;24.150;-110.320;2023-06-05T02:21:32;25.80;99.90
64501;DHT22;50874;24.150;-110.320;2023-06-05T02:24:02;25.60;99.90
64501;DHT22;50874;24.150;-110.320;2023-06-05T02:26:29;25.40;99.90
64501;DHT22;50874;24.150;-110.320;2023-06-05T02:28:56;25.30;99.90
64501;DHT22;50874;24.150;-110.320;2023-06-05T02:31:23;25.20;99.90
64501;DHT22;50874;24.150;-110.320;2023-06-05T02:33:53;25.00;99.90
64501;DHT22;50874;24.150;-110.320;2023-06-05T02:36:22;24.90;99.90
64501;DHT22;50874;24.150;-110.320;2023-06-05T02:38:49;24.60;99.90
64501;DHT22;50874;24.150;-110.320;2023-06-05T02:41:17;24.60;99.90
64501;DHT22;50874;24.150;-110.320;2023-06-05T02:43:44;24.60;99.90
64501;DHT22;50874;24.150;-110.320;2023-06-05T02:46:11;24.60;99.90
64501;DHT22;50874;24.150;-110.320;2023-06-05T02:48:38;24.50;99.90
64501;DHT22;50874;24.150;-110.320;2023-06-05T02:51:04;24.30;99.90
64501;DHT22;50874;24.150;-110.320;2023-06-05T02:53:32;24.20;99.90
64501;DHT22;50874;24.150;-110.320;2023-06-05T02:55:59;24.10;99.90
64501;DHT22;50874;24.150;-110.320;2023-06-05T02:58:27;24.20;99.90
64501;DHT22;50874;24.150;-110.320;2023-06-05T03:00:54;24.00;99.90
64501;DHT22;50874;24.150;-110.320;2023-06-05T03:03:22;24.00;99.90
64501;DHT22;50874;24.150;-110.320;2023-06-05T03:05:53;23.90;99.90
64501;DHT22;50874;24.150;-110.320;2023-06-05T03:08:19;23.80;99.90
64501;DHT22;50874;24.150;-110.320;2023-06-05T03:10:46;23.60;99.90
64501;DHT22;50874;24.150;-110.320;2023-06-05T03:13:13;23.70;99.90
64501;DHT22;50874;24.150;-110.320;2023-06-05T03:15:39;23.50;99.90
64501;DHT22;50874;24.150;-110.320;2023-06-05T03:18:06;23.50;99.90
64501;DHT22;50874;24.150;-110.320;2023-06-05T03:20:32;23.40;99.90
64501;DHT22;50874;24.150;-110.320;2023-06-05T03:23:00;23.30;99.90
64501;DHT22;50874;24.150;-110.320;2023-06-05T03:25:26;23.10;99.90
64501;DHT22;50874;24.150;-110.320;2023-06-05T03:27:53;23.10;99.90
64501;DHT22;50874;24.150;-110.320;2023-06-05T03:30:20;22.90;99.90
64501;DHT22;50874;24.150;-110.320;2023-06-05T03:32:47;22.90;99.90
64501;DHT22;50874;24.150;-110.320;2023-06-05T03:35:14;22.80;99.90
64501;DHT22;50874;24.150;-110.320;2023-06-05T03:37:40;22.70;99.90
64501;DHT22;50874;24.150;-110.320;2023-06-05T03:40:07;22.60;99.90
64501;DHT22;50874;24.150;-110.320;2023-06-05T03:42:34;22.60;99.90
64501;DHT22;50874;24.150;-110.320;2023-06-05T03:45:02;22.50;99.90
64501;DHT22;50874;24.150;-110.320;2023-06-05T03:47:28;22.50;99.90
64501;DHT22;50874;24.150;-110.320;2023-06-05T03:49:55;22.40;99.90
64501;DHT22;50874;24.150;-110.320;2023-06-05T03:52:21;22.30;99.90
64501;DHT22;50874;24.150;-110.320;2023-06-05T03:54:51;22.30;99.90
64501;DHT22;50874;24.150;-110.320;2023-06-05T03:57:21;22.00;99.90
64501;DHT22;50874;24.150;-110.320;2023-06-05T03:59:48;21.90;99.90
64501;DHT22;50874;24.150;-110.320;2023-06-05T04:02:14;21.90;99.90
64501;DHT22;50874;24.150;-110.320;2023-06-05T04:04:41;21.80;99.90
64501;DHT22;50874;24.150;-110.320;2023-06-05T04:07:07;21.70;99.90
64501;DHT22;50874;24.150;-110.320;2023-06-05T04:09:34;21.60;99.90
64501;DHT22;50874;24.150;-110.320;2023-06-05T04:12:00;21.50;99.90
64501;DHT22;50874;24.150;-110.320;2023-06-05T04:14:27;21.50;99.90
64501;DHT22;50874;24.150;-110.320;2023-06-05T04:16:53;21.50;99.90
64501;DHT22;50874;24.150;-110.320;2023-06-05T04:19:20;21.50;99.90
64501;DHT22;50874;24.150;-110.320;2023-06-05T04:21:46;21.40;99.90
64501;DHT22;50874;24.150;-110.320;2023-06-05T04:24:13;21.20;99.90
64501;DHT22;50874;24.150;-110.320;2023-06-05T04:26:40;21.10;99.90
64501;DHT22;50874;24.150;-110.320;2023-06-05T04:29:07;21.10;99.90
64501;DHT22;50874;24.150;-110.320;2023-06-05T04:31:45;21.10;99.90
64501;DHT22;50874;24.150;-110.320;2023-06-05T04:34:13;21.00;99.90
64501;DHT22;50874;24.150;-110.320;2023-06-05T04:36:42;21.00;99.90
64501;DHT22;50874;24.150;-110.320;2023-06-05T04:39:09;21.00;99.90
64501;DHT22;50874;24.150;-110.320;2023-06-05T04:41:42;21.00;99.90
64501;DHT22;50874;24.150;-110.320;2023-06-05T04:44:12;20.80;99.90
64501;DHT22;50874;24.150;-110.320;2023-06-05T04:46:43;20.70;99.90
64501;DHT22;50874;24.150;-110.320;2023-06-05T04:49:14;20.80;99.90
64501;DHT22;50874;24.150;-110.320;2023-06-05T04:51:40;20.70;99.90
64501;DHT22;50874;24.150;-110.320;2023-06-05T04:54:08;20.60;99.90
64501;DHT22;50874;24.150;-110.320;2023-06-05T04:56:35;20.60;99.90
64501;DHT22;50874;24.150;-110.320;2023-06-05T04:59:02;20.60;99.90
64501;DHT22;50874;24.150;-110.320;2023-06-05T05:01:29;20.60;99.90
64501;DHT22;50874;24.150;-110.320;2023-06-05T05:03:56;20.50;99.90
64501;DHT22;50874;24.150;-110.320;2023-06-05T05:06:24;20.40;99.90
64501;DHT22;50874;24.150;-110.320;2023-06-05T05:08:50;20.40;99.90
64501;DHT22;50874;24.150;-110.320;2023-06-05T05:11:17;20.40;99.90
64501;DHT22;50874;24.150;-110.320;2023-06-05T05:13:44;20.40;99.90
64501;DHT22;50874;24.150;-110.320;2023-06-05T05:16:10;20.30;99.90
64501;DHT22;50874;24.150;-110.320;2023-06-05T05:18:43;20.30;99.90
64501;DHT22;50874;24.150;-110.320;2023-06-05T05:21:09;20.30;99.90
64501;DHT22;50874;24.150;-110.320;2023-06-05T05:23:36;20.30;99.90
64501;DHT22;50874;24.150;-110.320;2023-06-05T05:26:02;20.20;99.90
64501;DHT22;50874;24.150;-110.320;2023-06-05T05:28:29;20.10;99.90
64501;DHT22;50874;24.150;-110.320;2023-06-05T05:30:56;20.00;99.90
64501;DHT22;50874;24.150;-110.320;2023-06-05T05:33:23;20.00;99.90
64501;DHT22;50874;24.150;-110.320;2023-06-05T05:35:49;19.90;99.90
64501;DHT22;50874;24.150;-110.320;2023-06-05T05:38:16;19.80;99.90
64501;DHT22;50874;24.150;-110.320;2023-06-05T05:40:43;19.80;99.90
64501;DHT22;50874;24.150;-110.320;2023-06-05T05:43:10;19.70;99.90
64501;DHT22;50874;24.150;-110.320;2023-06-05T05:45:36;19.70;99.90
64501;DHT22;50874;24.150;-110.320;2023-06-05T05:48:05;19.60;99.90
64501;DHT22;50874;24.150;-110.320;2023-06-05T05:50:31;19.60;99.90
64501;DHT22;50874;24.150;-110.320;2023-06-05T05:52:58;19.50;99.90
64501;DHT22;50874;24.150;-110.320;2023-06-05T05:55:24;19.50;99.90
64501;DHT22;50874;24.150;-110.320;2023-06-05T05:57:51;19.50;99.90
64501;DHT22;50874;24.150;-110.320;2023-06-05T06:00:18;19.50;99.90
64501;DHT22;50874;24.150;-110.320;2023-06-05T06:02:44;19.50;99.90
64501;DHT22;50874;24.150;-110.320;2023-06-05T06:05:11;19.40;99.90
64501;DHT22;50874;24.150;-110.320;2023-06-05T06:07:38;19.30;99.90
64501;DHT22;50874;24.150;-110.320;2023-06-05T06:10:08;19.30;99.90
64501;DHT22;50874;24.150;-110.320;2023-06-05T06:12:35;19.30;99.90
64501;DHT22;50874;24.150;-110.320;2023-06-05T06:15:02;19.20;99.90
64501;DHT22;50874;24.150;-110.320;2023-06-05T06:17:30;19.20;99.90
64501;DHT22;50874;24.150;-110.320;2023-06-05T06:19:56;19.20;99.90
64501;DHT22;50874;24.150;-110.320;2023-06-05T06:22:23;19.20;99.90
64501;DHT22;50874;24.150;-110.320;2023-06-05T06:24:49;19.10;99.90
64501;DHT22;50874;24.150;-110.320;2023-06-05T06:27:18;19.00;99.90
64501;DHT22;50874;24.150;-110.320;2023-06-05T06:29:49;19.00;99.90
64501;DHT22;50874;24.150;-110.320;2023-06-05T06:32:18;18.90;99.90
64501;DHT22;50874;24.150;-110.320;2023-06-05T06:34:45;18.80;99.90
64501;DHT22;50874;24.150;-110.320;2023-06-05T06:37:14;18.70;99.90
64501;DHT22;50874;24.150;-110.320;2023-06-05T06:39:46;18.80;99.90
64501;DHT22;50874;24.150;-110.320;2023-06-05T06:42:12;18.70;99.90
64501;DHT22;50874;24.150;-110.320;2023-06-05T06:44:42;18.60;99.90
64501;DHT22;50874;24.150;-110.320;2023-06-05T06:47:09;18.60;99.90
64501;DHT22;50874;24.150;-110.320;2023-06-05T06:49:36;18.50;99.90
64501;DHT22;50874;24.150;-110.320;2023-06-05T06:52:02;18.50;99.90
64501;DHT22;50874;24.150;-110.320;2023-06-05T06:54:29;18.50;99.90
64501;DHT22;50874;24.150;-110.320;2023-06-05T06:56:56;18.50;99.90
64501;DHT22;50874;24.150;-110.320;2023-06-05T06:59:23;18.40;99.90
64501;DHT22;50874;24.150;-110.320;2023-06-05T07:02:15;18.40;99.90
64501;DHT22;50874;24.150;-110.320;2023-06-05T07:04:42;18.40;99.90
64501;DHT22;50874;24.150;-110.320;2023-06-05T07:07:14;18.40;99.90
64501;DHT22;50874;24.150;-110.320;2023-06-05T07:09:41;18.40;99.90
64501;DHT22;50874;24.150;-110.320;2023-06-05T07:12:12;18.30;99.90
64501;DHT22;50874;24.150;-110.320;2023-06-05T07:14:40;18.20;99.90
64501;DHT22;50874;24.150;-110.320;2023-06-05T07:17:07;18.20;99.90
64501;DHT22;50874;24.150;-110.320;2023-06-05T07:19:35;18.20;99.90
64501;DHT22;50874;24.150;-110.320;2023-06-05T07:22:07;18.20;99.90
64501;DHT22;50874;24.150;-110.320;2023-06-05T07:24:34;18.10;99.90
64501;DHT22;50874;24.150;-110.320;2023-06-05T07:27:03;18.10;99.90
64501;DHT22;50874;24.150;-110.320;2023-06-05T07:29:30;18.10;99.90
64501;DHT22;50874;24.150;-110.320;2023-06-05T07:31:58;18.10;99.90
64501;DHT22;50874;24.150;-110.320;2023-06-05T07:34:26;18.10;99.90
64501;DHT22;50874;24.150;-110.320;2023-06-05T07:36:53;18.00;99.90
64501;DHT22;50874;24.150;-110.320;2023-06-05T07:39:21;18.00;99.90
64501;DHT22;50874;24.150;-110.320;2023-06-05T07:41:48;18.00;99.90
64501;DHT22;50874;24.150;-110.320;2023-06-05T07:44:17;18.00;99.90
64501;DHT22;50874;24.150;-110.320;2023-06-05T07:46:44;17.90;99.90
64501;DHT22;50874;24.150;-110.320;2023-06-05T07:49:11;17.90;99.90
64501;DHT22;50874;24.150;-110.320;2023-06-05T07:51:38;17.90;99.90
64501;DHT22;50874;24.150;-110.320;2023-06-05T07:54:10;17.90;99.90
64501;DHT22;50874;24.150;-110.320;2023-06-05T07:56:37;17.80;99.90
64501;DHT22;50874;24.150;-110.320;2023-06-05T07:59:05;17.90;99.90
64501;DHT22;50874;24.150;-110.320;2023-06-05T08:01:33;17.80;99.90
64501;DHT22;50874;24.150;-110.320;2023-06-05T08:04:06;17.70;99.90
64501;DHT22;50874;24.150;-110.320;2023-06-05T08:06:33;17.70;99.90
64501;DHT22;50874;24.150;-110.320;2023-06-05T08:09:04;17.70;99.90
64501;DHT22;50874;24.150;-110.320;2023-06-05T08:11:32;17.70;99.90
64501;DHT22;50874;24.150;-110.320;2023-06-05T08:13:58;17.70;99.90
64501;DHT22;50874;24.150;-110.320;2023-06-05T08:16:25;17.60;99.90
64501;DHT22;50874;24.150;-110.320;2023-06-05T08:18:51;17.60;99.90
64501;DHT22;50874;24.150;-110.320;2023-06-05T08:21:17;17.60;99.90
64501;DHT22;50874;24.150;-110.320;2023-06-05T08:23:44;17.50;99.90
64501;DHT22;50874;24.150;-110.320;2023-06-05T08:26:10;17.50;99.90
64501;DHT22;50874;24.150;-110.320;2023-06-05T08:28:41;17.40;99.90
64501;DHT22;50874;24.150;-110.320;2023-06-05T08:31:10;17.40;99.90
64501;DHT22;50874;24.150;-110.320;2023-06-05T08:33:37;17.30;99.90
64501;DHT22;50874;24.150;-110.320;2023-06-05T08:36:04;17.30;99.90
64501;DHT22;50874;24.150;-110.320;2023-06-05T08:38:31;17.20;99.90
64501;DHT22;50874;24.150;-110.320;2023-06-05T08:41:03;17.20;99.90
64501;DHT22;50874;24.150;-110.320;2023-06-05T08:43:31;17.10;99.90
64501;DHT22;50874;24.150;-110.320;2023-06-05T08:45:58;17.00;99.90
64501;DHT22;50874;24.150;-110.320;2023-06-05T08:48:25;17.00;99.90
64501;DHT22;50874;24.150;-110.320;2023-06-05T08:50:52;17.00;99.90
64501;DHT22;50874;24.150;-110.320;2023-06-05T08:53:21;16.90;99.90
64501;DHT22;50874;24.150;-110.320;2023-06-05T08:55:53;16.90;99.90
64501;DHT22;50874;24.150;-110.320;2023-06-05T08:58:20;16.90;99.90
64501;DHT22;50874;24.150;-110.320;2023-06-05T09:00:48;16.80;99.90
64501;DHT22;50874;24.150;-110.320;2023-06-05T09:03:15;16.70;99.90
64501;DHT22;50874;24.150;-110.320;2023-06-05T09:05:44;16.60;99.90
64501;DHT22;50874;24.150;-110.320;2023-06-05T09:08:11;16.60;99.90
64501;DHT22;50874;24.150;-110.320;2023-06-05T09:10:38;16.50;99.90
64501;DHT22;50874;24.150;-110.320;2023-06-05T09:13:04;16.40;99.90
64501;DHT22;50874;24.150;-110.320;2023-06-05T09:15:33;16.40;99.90
64501;DHT22;50874;24.150;-110.320;2023-06-05T09:18:11;16.20;99.90
64501;DHT22;50874;24.150;-110.320;2023-06-05T09:20:45;16.10;99.90
64501;DHT22;50874;24.150;-110.320;2023-06-05T09:23:41;16.10;99.90
64501;DHT22;50874;24.150;-110.320;2023-06-05T09:26:07;15.90;99.90
64501;DHT22;50874;24.150;-110.320;2023-06-05T09:28:35;16.00;99.90
64501;DHT22;50874;24.150;-110.320;2023-06-05T09:31:03;16.00;99.90
64501;DHT22;50874;24.150;-110.320;2023-06-05T09:33:33;16.00;99.90
64501;DHT22;50874;24.150;-110.320;2023-06-05T09:36:04;16.00;99.90
64501;DHT22;50874;24.150;-110.320;2023-06-05T09:38:31;16.00;99.90
64501;DHT22;50874;24.150;-110.320;2023-06-05T09:41:09;16.00;99.90
64501;DHT22;50874;24.150;-110.320;2023-06-05T09:43:36;16.00;99.90
64501;DHT22;50874;24.150;-110.320;2023-06-05T09:46:10;16.00;99.90
64501;DHT22;50874;24.150;-110.320;2023-06-05T09:48:38;16.10;99.90
64501;DHT22;50874;24.150;-110.320;2023-06-05T09:51:09;16.00;99.90
64501;DHT22;50874;24.150;-110.320;2023-06-05T09:56:14;16.00;99.90
64501;DHT22;50874;24.150;-110.320;2023-06-05T09:58:50;16.10;99.90
64501;DHT22;50874;24.150;-110.320;2023-06-05T10:01:23;16.10;99.90
64501;DHT22;50874;24.150;-110.320;2023-06-05T10:04:08;16.00;99.90
64501;DHT22;50874;24.150;-110.320;2023-06-05T10:06:36;16.00;99.90
64501;DHT22;50874;24.150;-110.320;2023-06-05T10:09:03;16.00;99.90
64501;DHT22;50874;24.150;-110.320;2023-06-05T10:11:30;16.00;99.90
64501;DHT22;50874;24.150;-110.320;2023-06-05T10:13:57;16.00;99.90
64501;DHT22;50874;24.150;-110.320;2023-06-05T10:16:28;16.00;99.90
64501;DHT22;50874;24.150;-110.320;2023-06-05T10:18:56;15.90;99.90
64501;DHT22;50874;24.150;-110.320;2023-06-05T10:21:23;15.90;99.90
64501;DHT22;50874;24.150;-110.320;2023-06-05T10:24:06;15.80;99.90
64501;DHT22;50874;24.150;-110.320;2023-06-05T10:27:14;15.90;99.90
64501;DHT22;50874;24.150;-110.320;2023-06-05T10:38:17;15.90;99.90
64501;DHT22;50874;24.150;-110.320;2023-06-05T10:40:54;15.80;99.90
64501;DHT22;50874;24.150;-110.320;2023-06-05T10:43:37;15.80;99.90
64501;DHT22;50874;24.150;-110.320;2023-06-05T10:46:33;15.90;99.90
64501;DHT22;50874;24.150;-110.320;2023-06-05T10:49:06;15.90;99.90
64501;DHT22;50874;24.150;-110.320;2023-06-05T10:51:41;15.90;99.90
64501;DHT22;50874;24.150;-110.320;2023-06-05T10:54:13;15.90;99.90
64501;DHT22;50874;24.150;-110.320;2023-06-05T10:59:33;15.90;99.90
64501;DHT22;50874;24.150;-110.320;2023-06-05T11:07:22;16.00;99.90
64501;DHT22;50874;24.150;-110.320;2023-06-05T11:10:14;16.00;99.90
64501;DHT22;50874;24.150;-110.320;2023-06-05T11:15:14;16.00;99.90
64501;DHT22;50874;24.150;-110.320;2023-06-05T11:17:44;16.10;99.90
64501;DHT22;50874;24.150;-110.320;2023-06-05T11:28:02;16.10;99.90
64501;DHT22;50874;24.150;-110.320;2023-06-05T11:30:40;16.10;99.90
64501;DHT22;50874;24.150;-110.320;2023-06-05T11:33:15;16.10;99.90
64501;DHT22;50874;24.150;-110.320;2023-06-05T11:35:44;16.00;99.90
64501;DHT22;50874;24.150;-110.320;2023-06-05T11:38:15;16.00;99.90
64501;DHT22;50874;24.150;-110.320;2023-06-05T11:40:43;16.00;99.90
64501;DHT22;50874;24.150;-110.320;2023-06-05T11:43:11;16.00;99.90
64501;DHT22;50874;24.150;-110.320;2023-06-05T11:45:40;16.00;99.90
64501;DHT22;50874;24.150;-110.320;2023-06-05T11:48:12;16.00;99.90
64501;DHT22;50874;24.150;-110.320;2023-06-05T11:50:50;16.10;99.90
64501;DHT22;50874;24.150;-110.320;2023-06-05T11:53:18;16.10;99.90
64501;DHT22;50874;24.150;-110.320;2023-06-05T11:55:44;16.00;99.90
64501;DHT22;50874;24.150;-110.320;2023-06-05T11:58:24;16.00;99.90
64501;DHT22;50874;24.150;-110.320;2023-06-05T12:01:03;16.00;99.90
64501;DHT22;50874;24.150;-110.320;2023-06-05T12:03:30;15.90;99.90
64501;DHT22;50874;24.150;-110.320;2023-06-05T12:06:00;15.90;99.90
64501;DHT22;50874;24.150;-110.320;2023-06-05T12:08:29;15.90;99.90
64501;DHT22;50874;24.150;-110.320;2023-06-05T12:11:23;15.90;99.90
64501;DHT22;50874;24.150;-110.320;2023-06-05T12:13:52;15.90;99.90
64501;DHT22;50874;24.150;-110.320;2023-06-05T12:16:28;15.90;99.90
64501;DHT22;50874;24.150;-110.320;2023-06-05T12:18:56;15.90;99.90
64501;DHT22;50874;24.150;-110.320;2023-06-05T12:21:24;15.90;99.90
64501;DHT22;50874;24.150;-110.320;2023-06-05T12:23:52;15.80;99.90
64501;DHT22;50874;24.150;-110.320;2023-06-05T12:26:26;15.80;99.90
64501;DHT22;50874;24.150;-110.320;2023-06-05T12:29:05;15.80;99.90
64501;DHT22;50874;24.150;-110.320;2023-06-05T12:31:33;15.70;99.90
64501;DHT22;50874;24.150;-110.320;2023-06-05T12:34:01;15.80;99.90
64501;DHT22;50874;24.150;-110.320;2023-06-05T12:36:28;15.80;99.90
64501;DHT22;50874;24.150;-110.320;2023-06-05T12:38:55;15.70;99.90
64501;DHT22;50874;24.150;-110.320;2023-06-05T12:41:21;15.70;99.90
64501;DHT22;50874;24.150;-110.320;2023-06-05T12:43:59;15.80;99.90
64501;DHT22;50874;24.150;-110.320;2023-06-05T12:46:26;15.70;99.90
64501;DHT22;50874;24.150;-110.320;2023-06-05T12:48:54;15.70;99.90
64501;DHT22;50874;24.150;-110.320;2023-06-05T12:51:21;15.80;99.90
64501;DHT22;50874;24.150;-110.320;2023-06-05T12:53:47;15.90;99.90
64501;DHT22;50874;24.150;-110.320;2023-06-05T12:56:14;16.10;99.90
64501;DHT22;50874;24.150;-110.320;2023-06-05T12:58:40;16.30;99.90
64501;DHT22;50874;24.150;-110.320;2023-06-05T13:01:07;16.60;99.90
64501;DHT22;50874;24.150;-110.320;2023-06-05T13:03:33;16.70;99.90
64501;DHT22;50874;24.150;-110.320;2023-06-05T13:06:00;16.80;99.90
64501;DHT22;50874;24.150;-110.320;2023-06-05T13:08:27;17.00;99.90
64501;DHT22;50874;24.150;-110.320;2023-06-05T13:10:53;17.10;99.90
64501;DHT22;50874;24.150;-110.320;2023-06-05T13:13:20;17.20;99.90
64501;DHT22;50874;24.150;-110.320;2023-06-05T13:15:47;17.30;99.90
64501;DHT22;50874;24.150;-110.320;2023-06-05T13:18:13;17.50;99.90
64501;DHT22;50874;24.150;-110.320;2023-06-05T13:20:40;17.40;99.90
64501;DHT22;50874;24.150;-110.320;2023-06-05T13:23:06;17.60;99.90
64501;DHT22;50874;24.150;-110.320;2023-06-05T13:25:33;17.50;99.90
64501;DHT22;50874;24.150;-110.320;2023-06-05T13:28:00;17.60;99.90
64501;DHT22;50874;24.150;-110.320;2023-06-05T13:30:26;17.90;99.90
64501;DHT22;50874;24.150;-110.320;2023-06-05T13:32:53;18.20;99.90
64501;DHT22;50874;24.150;-110.320;2023-06-05T13:35:20;18.40;99.90
64501;DHT22;50874;24.150;-110.320;2023-06-05T13:37:47;18.90;99.90
64501;DHT22;50874;24.150;-110.320;2023-06-05T13:40:15;19.00;99.90
64501;DHT22;50874;24.150;-110.320;2023-06-05T13:42:42;19.30;99.90
64501;DHT22;50874;24.150;-110.320;2023-06-05T13:45:09;19.60;99.90
64501;DHT22;50874;24.150;-110.320;2023-06-05T13:47:36;19.80;99.90
64501;DHT22;50874;24.150;-110.320;2023-06-05T13:50:04;19.90;99.90
64501;DHT22;50874;24.150;-110.320;2023-06-05T13:52:30;20.00;99.90
64501;DHT22;50874;24.150;-110.320;2023-06-05T13:54:57;20.10;99.90
64501;DHT22;50874;24.150;-110.320;2023-06-05T13:57:24;20.20;99.90
64501;DHT22;50874;24.150;-110.320;2023-06-05T13:59:50;20.30;99.90
64501;DHT22;50874;24.150;-110.320;2023-06-05T14:02:17;20.40;99.90
64501;DHT22;50874;24.150;-110.320;2023-06-05T14:04:43;20.50;99.90
64501;DHT22;50874;24.150;-110.320;2023-06-05T14:07:10;20.40;99.90
64501;DHT22;50874;24.150;-110.320;2023-06-05T14:09:36;20.50;99.90
64501;DHT22;50874;24.150;-110.320;2023-06-05T14:12:03;20.70;99.90
64501;DHT22;50874;24.150;-110.320;2023-06-05T14:14:30;20.70;99.90
64501;DHT22;50874;24.150;-110.320;2023-06-05T14:16:57;20.80;99.90
64501;DHT22;50874;24.150;-110.320;2023-06-05T14:19:23;20.90;99.90
64501;DHT22;50874;24.150;-110.320;2023-06-05T14:21:49;21.20;99.90
64501;DHT22;50874;24.150;-110.320;2023-06-05T14:24:16;21.50;99.90
64501;DHT22;50874;24.150;-110.320;2023-06-05T14:26:45;21.60;99.90
64501;DHT22;50874;24.150;-110.320;2023-06-05T14:29:12;21.90;99.90
64501;DHT22;50874;24.150;-110.320;2023-06-05T14:31:38;21.80;99.90
64501;DHT22;50874;24.150;-110.320;2023-06-05T14:34:05;22.10;99.90
64501;DHT22;50874;24.150;-110.320;2023-06-05T14:36:31;22.40;99.90
64501;DHT22;50874;24.150;-110.320;2023-06-05T14:38:58;22.50;99.90
64501;DHT22;50874;24.150;-110.320;2023-06-05T14:41:24;22.90;99.90
64501;DHT22;50874;24.150;-110.320;2023-06-05T14:43:51;23.00;99.90
64501;DHT22;50874;24.150;-110.320;2023-06-05T14:46:18;23.30;99.90
64501;DHT22;50874;24.150;-110.320;2023-06-05T14:48:44;23.60;99.90
64501;DHT22;50874;24.150;-110.320;2023-06-05T14:51:11;23.70;99.90
64501;DHT22;50874;24.150;-110.320;2023-06-05T14:53:37;23.50;99.90
64501;DHT22;50874;24.150;-110.320;2023-06-05T14:56:04;23.60;99.90
64501;DHT22;50874;24.150;-110.320;2023-06-05T14:58:31;23.80;99.90
64501;DHT22;50874;24.150;-110.320;2023-06-05T15:00:57;24.10;99.90
64501;DHT22;50874;24.150;-110.320;2023-06-05T15:03:26;23.90;99.90
64501;DHT22;50874;24.150;-110.320;2023-06-05T15:05:53;24.10;99.90
64501;DHT22;50874;24.150;-110.320;2023-06-05T15:08:19;24.50;99.90
64501;DHT22;50874;24.150;-110.320;2023-06-05T15:10:47;24.90;99.90
64501;DHT22;50874;24.150;-110.320;2023-06-05T15:13:14;25.20;99.90
64501;DHT22;50874;24.150;-110.320;2023-06-05T15:15:41;25.50;99.90
64501;DHT22;50874;24.150;-110.320;2023-06-05T15:18:08;25.50;99.90
64501;DHT22;50874;24.150;-110.320;2023-06-05T15:20:34;25.60;99.90
64501;DHT22;50874;24.150;-110.320;2023-06-05T15:23:01;25.50;99.90
64501;DHT22;50874;24.150;-110.320;2023-06-05T15:25:27;25.60;99.90
64501;DHT22;50874;24.150;-110.320;2023-06-05T15:27:54;26.00;99.90
64501;DHT22;50874;24.150;-110.320;2023-06-05T15:30:21;26.20;99.90